createdAt,value
2017-05-30T00:00:10.980Z,929.58
2017-05-30T00:00:30.964Z,929.6
2017-05-30T00:00:50.373Z,929.6
2017-05-30T00:01:10.329Z,929.6
2017-05-30T00:01:30.322Z,929.63
2017-05-30T00:01:50.268Z,929.62
2017-05-30T00:02:10.213Z,929.6
2017-05-30T00:02:30.145Z,929.6
2017-05-30T00:02:50.095Z,929.61
2017-05-30T00:03:09.528Z,929.63
2017-05-30T00:03:29.548Z,929.62
2017-05-30T00:03:49.529Z,929.63
2017-05-30T00:04:09.504Z,929.65
2017-05-30T00:04:29.476Z,929.65
2017-05-30T00:04:48.895Z,929.64
2017-05-30T00:05:08.930Z,929.64
2017-05-30T00:05:27.766Z,929.62
2017-05-30T00:05:47.224Z,929.64
2017-05-30T00:06:07.208Z,929.64
2017-05-30T00:06:26.074Z,929.62
2017-05-30T00:06:46.036Z,929.62
2017-05-30T00:07:05.983Z,929.6
2017-05-30T00:07:25.948Z,929.62
2017-05-30T00:07:45.960Z,929.65
2017-05-30T00:08:05.878Z,929.63
2017-05-30T00:08:24.762Z,929.59
2017-05-30T00:08:44.177Z,929.61
2017-05-30T00:09:04.126Z,929.61
2017-05-30T00:09:24.143Z,929.63
2017-05-30T00:09:43.560Z,929.63
2017-05-30T00:10:03.287Z,929.63
2017-05-30T00:10:22.692Z,929.65
2017-05-30T00:10:40.966Z,929.68
2017-05-30T00:11:00.959Z,929.73
2017-05-30T00:11:20.910Z,929.69
2017-05-30T00:11:40.348Z,929.69
2017-05-30T00:12:00.339Z,929.72
2017-05-30T00:12:19.158Z,929.7
2017-05-30T00:12:38.082Z,929.76
2017-05-30T00:12:58.058Z,929.75
2017-05-30T00:13:18.039Z,929.76
2017-05-30T00:13:37.987Z,929.78
2017-05-30T00:13:57.966Z,929.81
2017-05-30T00:14:17.360Z,929.81
2017-05-30T00:14:36.237Z,929.82
2017-05-30T00:14:56.182Z,929.8
2017-05-30T00:15:16.153Z,929.81
2017-05-30T00:15:35.576Z,929.82
2017-05-30T00:15:55.573Z,929.83
2017-05-30T00:16:15.549Z,929.8
2017-05-30T00:16:34.936Z,929.81
2017-05-30T00:16:54.902Z,929.8
2017-05-30T00:17:14.831Z,929.79
2017-05-30T00:17:34.243Z,929.81
2017-05-30T00:17:53.667Z,929.82
2017-05-30T00:18:13.643Z,929.84
2017-05-30T00:18:33.614Z,929.84
2017-05-30T00:18:53.014Z,929.8
2017-05-30T00:19:12.967Z,929.83
2017-05-30T00:19:32.341Z,929.84
2017-05-30T00:19:52.350Z,929.78
2017-05-30T00:20:12.362Z,929.78
2017-05-30T00:20:31.779Z,929.8
2017-05-30T00:20:51.184Z,929.8
2017-05-30T00:21:10.549Z,929.8
2017-05-30T00:21:28.927Z,929.79
2017-05-30T00:21:48.396Z,929.81
2017-05-30T00:22:08.525Z,929.77
2017-05-30T00:22:27.964Z,929.8
2017-05-30T00:22:47.965Z,929.82
2017-05-30T00:23:07.400Z,929.77
2017-05-30T00:23:27.356Z,929.79
2017-05-30T00:23:47.257Z,929.81
2017-05-30T00:24:07.218Z,929.84
2017-05-30T00:24:26.602Z,929.82
2017-05-30T00:24:46.542Z,929.81
2017-05-30T00:25:06.520Z,929.84
2017-05-30T00:25:25.988Z,929.8
2017-05-30T00:25:44.870Z,929.8
2017-05-30T00:26:04.285Z,929.82
2017-05-30T00:26:23.838Z,929.78
2017-05-30T00:26:43.258Z,929.8
2017-05-30T00:27:03.235Z,929.82
2017-05-30T00:27:23.210Z,929.83
2017-05-30T00:27:43.195Z,929.8
2017-05-30T00:28:03.205Z,929.78
2017-05-30T00:28:21.520Z,929.79
2017-05-30T00:28:40.938Z,929.81
2017-05-30T00:29:00.937Z,929.78
2017-05-30T00:29:20.930Z,929.78
2017-05-30T00:29:40.895Z,929.81
2017-05-30T00:30:00.879Z,929.77
2017-05-30T00:30:20.322Z,929.79
2017-05-30T00:30:40.256Z,929.8
2017-05-30T00:31:00.317Z,929.78
2017-05-30T00:31:20.280Z,929.78
2017-05-30T00:31:40.293Z,929.78
2017-05-30T00:31:59.741Z,929.76
2017-05-30T00:32:19.162Z,929.79
2017-05-30T00:32:39.192Z,929.79
2017-05-30T00:32:58.657Z,929.78
2017-05-30T00:33:18.640Z,929.79
2017-05-30T00:33:38.615Z,929.8
2017-05-30T00:33:58.641Z,929.77
2017-05-30T00:34:18.018Z,929.75
2017-05-30T00:34:37.441Z,929.76
2017-05-30T00:34:57.386Z,929.77
2017-05-30T00:35:16.851Z,929.73
2017-05-30T00:35:36.815Z,929.75
2017-05-30T00:35:56.798Z,929.76
2017-05-30T00:36:16.887Z,929.77
2017-05-30T00:36:36.444Z,929.77
2017-05-30T00:36:56.366Z,929.77
2017-05-30T00:37:16.343Z,929.81
2017-05-30T00:37:35.148Z,929.77
2017-05-30T00:37:54.564Z,929.76
2017-05-30T00:38:13.961Z,929.77
2017-05-30T00:38:33.910Z,929.8
2017-05-30T00:38:53.319Z,929.77
2017-05-30T00:39:13.255Z,929.82
2017-05-30T00:39:32.129Z,929.81
2017-05-30T00:39:52.109Z,929.8
2017-05-30T00:40:10.997Z,929.8
2017-05-30T00:40:31.005Z,929.8
2017-05-30T00:40:49.899Z,929.82
2017-05-30T00:41:09.869Z,929.82
2017-05-30T00:41:29.272Z,929.78
2017-05-30T00:41:49.280Z,929.79
2017-05-30T00:42:09.250Z,929.82
2017-05-30T00:42:28.668Z,929.78
2017-05-30T00:42:47.553Z,929.83
2017-05-30T00:43:07.543Z,929.84
2017-05-30T00:43:27.517Z,929.86
2017-05-30T00:43:46.912Z,929.83
2017-05-30T00:44:06.863Z,929.81
2017-05-30T00:44:26.196Z,929.85
2017-05-30T00:44:46.145Z,929.84
2017-05-30T00:45:05.544Z,929.83
2017-05-30T00:45:25.512Z,929.84
2017-05-30T00:45:45.474Z,929.84
2017-05-30T00:46:05.465Z,929.81
2017-05-30T00:46:25.539Z,929.82
2017-05-30T00:46:45.533Z,929.81
2017-05-30T00:47:05.483Z,929.83
2017-05-30T00:47:25.461Z,929.81
2017-05-30T00:47:45.463Z,929.81
2017-05-30T00:48:04.327Z,929.8
2017-05-30T00:48:24.335Z,929.79
2017-05-30T00:48:44.415Z,929.77
2017-05-30T00:49:04.367Z,929.77
2017-05-30T00:49:23.203Z,929.76
2017-05-30T00:49:43.165Z,929.75
2017-05-30T00:50:02.571Z,929.79
2017-05-30T00:50:22.560Z,929.78
2017-05-30T00:50:41.975Z,929.78
2017-05-30T00:51:01.390Z,929.75
2017-05-30T00:51:20.786Z,929.73
2017-05-30T00:51:40.753Z,929.77
2017-05-30T00:52:00.181Z,929.73
2017-05-30T00:52:19.591Z,929.77
2017-05-30T00:52:39.537Z,929.73
2017-05-30T00:52:59.518Z,929.73
2017-05-30T00:53:18.373Z,929.74
2017-05-30T00:53:38.359Z,929.72
2017-05-30T00:53:58.307Z,929.76
2017-05-30T00:54:17.725Z,929.74
2017-05-30T00:54:37.677Z,929.72
2017-05-30T00:54:57.675Z,929.72
2017-05-30T00:55:17.645Z,929.74
2017-05-30T00:55:37.923Z,929.72
2017-05-30T00:55:57.874Z,929.7
2017-05-30T00:56:17.285Z,929.73
2017-05-30T00:56:36.185Z,929.71
2017-05-30T00:56:56.130Z,929.71
2017-05-30T00:57:15.522Z,929.7
2017-05-30T00:57:34.940Z,929.71
2017-05-30T00:57:54.942Z,929.73
2017-05-30T00:58:14.318Z,929.73
2017-05-30T00:58:34.314Z,929.72
2017-05-30T00:58:53.703Z,929.69
2017-05-30T00:59:13.669Z,929.72
2017-05-30T00:59:33.598Z,929.7
2017-05-30T00:59:53.051Z,929.68
2017-05-30T01:00:11.918Z,929.68
2017-05-30T01:00:31.895Z,929.71
2017-05-30T01:00:51.899Z,929.7
2017-05-30T01:01:10.200Z,929.66
2017-05-30T01:01:29.053Z,929.67
2017-05-30T01:01:48.430Z,929.66
2017-05-30T01:02:08.366Z,929.64
2017-05-30T01:02:27.814Z,929.68
2017-05-30T01:02:47.244Z,929.72
2017-05-30T01:03:06.634Z,929.69
2017-05-30T01:03:26.602Z,929.7
2017-05-30T01:03:46.601Z,929.69
2017-05-30T01:04:06.579Z,929.71
2017-05-30T01:04:25.994Z,929.73
2017-05-30T01:04:45.945Z,929.71
2017-05-30T01:05:05.328Z,929.73
2017-05-30T01:05:25.302Z,929.7
2017-05-30T01:05:44.164Z,929.76
2017-05-30T01:06:03.607Z,929.73
2017-05-30T01:06:22.495Z,929.76
2017-05-30T01:06:42.485Z,929.74
2017-05-30T01:07:02.451Z,929.76
2017-05-30T01:07:22.418Z,929.76
2017-05-30T01:07:42.387Z,929.74
2017-05-30T01:08:01.786Z,929.76
2017-05-30T01:08:21.201Z,929.77
2017-05-30T01:08:41.187Z,929.76
2017-05-30T01:09:01.166Z,929.77
2017-05-30T01:09:20.529Z,929.76
2017-05-30T01:09:40.480Z,929.77
2017-05-30T01:10:00.477Z,929.77
2017-05-30T01:10:19.337Z,929.75
2017-05-30T01:10:39.405Z,929.78
2017-05-30T01:10:58.781Z,929.73
2017-05-30T01:11:18.707Z,929.72
2017-05-30T01:11:38.691Z,929.71
2017-05-30T01:11:58.655Z,929.73
2017-05-30T01:12:18.667Z,929.74
2017-05-30T01:12:38.625Z,929.76
2017-05-30T01:12:58.649Z,929.77
2017-05-30T01:13:18.034Z,929.77
2017-05-30T01:13:51.833Z,929.76
2017-05-30T01:14:11.819Z,929.75
2017-05-30T01:14:31.805Z,929.77
2017-05-30T01:14:51.778Z,929.73
2017-05-30T01:15:11.791Z,929.76
2017-05-30T01:15:31.775Z,929.76
2017-05-30T01:15:51.140Z,929.79
2017-05-30T01:16:30.051Z,929.82
2017-05-30T01:16:50.018Z,929.78
2017-05-30T01:17:09.966Z,929.78
2017-05-30T01:17:29.990Z,929.8
2017-05-30T01:17:49.411Z,929.8
2017-05-30T01:18:09.337Z,929.76
2017-05-30T01:18:29.311Z,929.79
2017-05-30T01:18:49.290Z,929.82
2017-05-30T01:19:09.282Z,929.77
2017-05-30T01:19:28.647Z,929.76
2017-05-30T01:19:48.627Z,929.76
2017-05-30T01:20:08.569Z,929.74
2017-05-30T01:20:27.976Z,929.76
2017-05-30T01:20:47.949Z,929.74
2017-05-30T01:21:07.352Z,929.72
2017-05-30T01:21:26.727Z,929.72
2017-05-30T01:21:46.653Z,929.7
2017-05-30T01:22:06.597Z,929.73
2017-05-30T01:22:26.035Z,929.71
2017-05-30T01:22:45.999Z,929.71
2017-05-30T01:23:04.285Z,929.72
2017-05-30T01:23:24.245Z,929.72
2017-05-30T01:23:44.205Z,929.71
2017-05-30T01:24:03.636Z,929.72
2017-05-30T01:24:23.080Z,929.73
2017-05-30T01:24:42.504Z,929.74
2017-05-30T01:25:02.465Z,929.77
2017-05-30T01:25:21.289Z,929.77
2017-05-30T01:25:40.721Z,929.76
2017-05-30T01:26:00.671Z,929.75
2017-05-30T01:26:19.517Z,929.77
2017-05-30T01:26:38.327Z,929.76
2017-05-30T01:26:58.306Z,929.76
2017-05-30T01:27:17.711Z,929.79
2017-05-30T01:27:37.649Z,929.74
2017-05-30T01:27:57.640Z,929.81
2017-05-30T01:28:17.066Z,929.78
2017-05-30T01:28:36.475Z,929.76
2017-05-30T01:28:56.411Z,929.8
2017-05-30T01:29:16.422Z,929.79
2017-05-30T01:29:36.401Z,929.81
2017-05-30T01:29:56.388Z,929.77
2017-05-30T01:30:14.688Z,929.76
2017-05-30T01:30:34.670Z,929.77
2017-05-30T01:30:54.607Z,929.78
2017-05-30T01:31:14.061Z,929.78
2017-05-30T01:31:34.045Z,929.77
2017-05-30T01:31:53.444Z,929.78
2017-05-30T01:32:13.418Z,929.78
2017-05-30T01:32:32.803Z,929.73
2017-05-30T01:32:52.788Z,929.73
2017-05-30T01:33:12.751Z,929.78
2017-05-30T01:33:32.152Z,929.73
2017-05-30T01:33:51.578Z,929.75
2017-05-30T01:34:11.522Z,929.76
2017-05-30T01:34:30.960Z,929.76
2017-05-30T01:34:50.382Z,929.69
2017-05-30T01:35:10.346Z,929.73
2017-05-30T01:35:30.367Z,929.72
2017-05-30T01:35:50.368Z,929.74
2017-05-30T01:36:10.357Z,929.74
2017-05-30T01:36:30.294Z,929.69
2017-05-30T01:36:49.689Z,929.69
2017-05-30T01:37:09.692Z,929.68
2017-05-30T01:37:29.125Z,929.68
2017-05-30T01:37:48.521Z,929.67
2017-05-30T01:38:08.611Z,929.67
2017-05-30T01:38:28.550Z,929.67
2017-05-30T01:38:48.531Z,929.69
2017-05-30T01:39:08.534Z,929.69
2017-05-30T01:39:28.539Z,929.69
2017-05-30T01:39:47.384Z,929.71
2017-05-30T01:40:07.381Z,929.68
2017-05-30T01:40:27.398Z,929.69
2017-05-30T01:40:46.814Z,929.7
2017-05-30T01:41:06.769Z,929.7
2017-05-30T01:41:26.303Z,929.7
2017-05-30T01:41:45.695Z,929.73
2017-05-30T01:42:05.702Z,929.76
2017-05-30T01:42:25.667Z,929.76
2017-05-30T01:42:45.119Z,929.76
2017-05-30T01:43:05.089Z,929.75
2017-05-30T01:43:24.514Z,929.73
2017-05-30T01:43:44.459Z,929.73
2017-05-30T01:44:04.416Z,929.7
2017-05-30T01:44:22.715Z,929.75
2017-05-30T01:44:42.665Z,929.77
2017-05-30T01:45:02.075Z,929.72
2017-05-30T01:45:21.473Z,929.76
2017-05-30T01:45:41.428Z,929.75
2017-05-30T01:46:01.426Z,929.76
2017-05-30T01:46:20.844Z,929.72
2017-05-30T01:46:40.805Z,929.75
2017-05-30T01:47:00.175Z,929.78
2017-05-30T01:47:19.013Z,929.71
2017-05-30T01:47:38.964Z,929.72
2017-05-30T01:47:58.363Z,929.73
2017-05-30T01:48:18.367Z,929.7
2017-05-30T01:48:38.342Z,929.73
2017-05-30T01:48:58.335Z,929.72
2017-05-30T01:49:17.734Z,929.69
2017-05-30T01:49:37.693Z,929.71
2017-05-30T01:49:57.653Z,929.69
2017-05-30T01:50:17.649Z,929.72
2017-05-30T01:50:37.660Z,929.74
2017-05-30T01:50:57.643Z,929.72
2017-05-30T01:51:17.610Z,929.69
2017-05-30T01:51:37.581Z,929.73
2017-05-30T01:51:57.551Z,929.71
2017-05-30T01:52:17.512Z,929.73
2017-05-30T01:52:36.899Z,929.69
2017-05-30T01:52:56.870Z,929.68
2017-05-30T01:53:16.846Z,929.68
2017-05-30T01:53:36.810Z,929.7
2017-05-30T01:53:56.222Z,929.68
2017-05-30T01:54:16.213Z,929.69
2017-05-30T01:54:35.627Z,929.7
2017-05-30T01:54:55.574Z,929.67
2017-05-30T01:55:14.956Z,929.7
2017-05-30T01:55:34.905Z,929.7
2017-05-30T01:55:54.879Z,929.72
2017-05-30T01:56:14.869Z,929.73
2017-05-30T01:56:34.830Z,929.7
2017-05-30T01:56:54.768Z,929.74
2017-05-30T01:57:14.732Z,929.76
2017-05-30T01:57:34.697Z,929.76
2017-05-30T01:57:54.664Z,929.74
2017-05-30T01:58:14.651Z,929.76
2017-05-30T01:58:34.634Z,929.76
2017-05-30T01:58:54.620Z,929.81
2017-05-30T01:59:14.023Z,929.76
2017-05-30T01:59:31.752Z,929.79
2017-05-30T01:59:51.734Z,929.78
2017-05-30T02:00:11.668Z,929.77
2017-05-30T02:00:31.052Z,929.79
2017-05-30T02:00:50.474Z,929.82
2017-05-30T02:01:09.900Z,929.81
2017-05-30T02:01:28.751Z,929.81
2017-05-30T02:01:48.702Z,929.8
2017-05-30T02:02:08.096Z,929.79
2017-05-30T02:02:28.088Z,929.85
2017-05-30T02:02:48.034Z,929.79
2017-05-30T02:03:07.076Z,929.89
2017-05-30T02:03:25.941Z,929.84
2017-05-30T02:03:45.915Z,929.85
2017-05-30T02:04:05.338Z,929.86
2017-05-30T02:04:25.332Z,929.82
2017-05-30T02:04:44.191Z,929.83
2017-05-30T02:05:03.041Z,929.84
2017-05-30T02:05:23.047Z,929.85
2017-05-30T02:05:43.011Z,929.84
2017-05-30T02:06:03.009Z,929.86
2017-05-30T02:06:23.004Z,929.87
2017-05-30T02:06:42.417Z,929.82
2017-05-30T02:07:02.375Z,929.88
2017-05-30T02:07:22.321Z,929.88
2017-05-30T02:07:42.283Z,929.84
2017-05-30T02:08:02.278Z,929.85
2017-05-30T02:08:22.283Z,929.86
2017-05-30T02:08:41.684Z,929.84
2017-05-30T02:09:01.119Z,929.8
2017-05-30T02:09:20.533Z,929.81
2017-05-30T02:09:40.559Z,929.76
2017-05-30T02:10:00.526Z,929.76
2017-05-30T02:10:19.927Z,929.79
2017-05-30T02:10:38.197Z,929.72
2017-05-30T02:10:58.150Z,929.76
2017-05-30T02:11:17.578Z,929.7
2017-05-30T02:11:37.537Z,929.76
2017-05-30T02:11:57.524Z,929.71
2017-05-30T02:12:17.483Z,929.69
2017-05-30T02:12:37.419Z,929.69
2017-05-30T02:12:57.372Z,929.75
2017-05-30T02:13:16.784Z,929.73
2017-05-30T02:13:35.077Z,929.68
2017-05-30T02:13:54.497Z,929.69
2017-05-30T02:14:13.357Z,929.73
2017-05-30T02:14:32.781Z,929.73
2017-05-30T02:14:52.740Z,929.68
2017-05-30T02:15:12.684Z,929.71
2017-05-30T02:15:32.127Z,929.69
2017-05-30T02:15:52.101Z,929.69
2017-05-30T02:16:12.035Z,929.73
2017-05-30T02:16:32.138Z,929.76
2017-05-30T02:16:52.162Z,929.71
2017-05-30T02:17:12.165Z,929.74
2017-05-30T02:17:31.555Z,929.73
2017-05-30T02:17:51.543Z,929.73
2017-05-30T02:18:11.520Z,929.75
2017-05-30T02:18:31.511Z,929.7
2017-05-30T02:18:50.905Z,929.71
2017-05-30T02:19:10.891Z,929.76
2017-05-30T02:19:30.314Z,929.75
2017-05-30T02:19:50.294Z,929.76
2017-05-30T02:20:10.273Z,929.78
2017-05-30T02:20:29.712Z,929.8
2017-05-30T02:20:49.718Z,929.79
2017-05-30T02:21:09.739Z,929.76
2017-05-30T02:21:30.091Z,929.76
2017-05-30T02:21:50.111Z,929.78
2017-05-30T02:22:09.000Z,929.8
2017-05-30T02:22:28.462Z,929.75
2017-05-30T02:22:48.498Z,929.82
2017-05-30T02:23:09.050Z,929.78
2017-05-30T02:23:29.143Z,929.8
2017-05-30T02:23:49.162Z,929.79
2017-05-30T02:24:09.197Z,929.79
2017-05-30T02:24:28.640Z,929.78
2017-05-30T02:24:48.718Z,929.79
2017-05-30T02:25:08.216Z,929.79
2017-05-30T02:25:27.099Z,929.72
2017-05-30T02:25:47.119Z,929.73
2017-05-30T02:26:07.157Z,929.71
2017-05-30T02:26:27.162Z,929.78
2017-05-30T02:26:47.187Z,929.74
2017-05-30T02:27:07.216Z,929.74
2017-05-30T02:27:26.670Z,929.76
2017-05-30T02:27:46.131Z,929.69
2017-05-30T02:28:06.207Z,929.71
2017-05-30T02:28:26.213Z,929.68
2017-05-30T02:28:46.225Z,929.73
2017-05-30T02:29:05.668Z,929.72
2017-05-30T02:29:25.683Z,929.7
2017-05-30T02:29:45.765Z,929.72
2017-05-30T02:30:05.196Z,929.72
2017-05-30T02:30:25.235Z,929.73
2017-05-30T02:30:44.123Z,929.68
2017-05-30T02:31:04.148Z,929.71
2017-05-30T02:31:24.166Z,929.7
2017-05-30T02:31:43.974Z,929.65
2017-05-30T02:32:03.987Z,929.65
2017-05-30T02:32:23.989Z,929.68
2017-05-30T02:32:43.460Z,929.67
2017-05-30T02:33:03.505Z,929.61
2017-05-30T02:33:23.555Z,929.63
2017-05-30T02:33:42.993Z,929.61
2017-05-30T02:34:02.954Z,929.54
2017-05-30T02:34:22.387Z,929.57
2017-05-30T02:34:42.376Z,929.59
2017-05-30T02:35:02.362Z,929.63
2017-05-30T02:35:22.386Z,929.62
2017-05-30T02:35:42.417Z,929.59
2017-05-30T02:36:01.832Z,929.58
2017-05-30T02:36:20.694Z,929.59
2017-05-30T02:36:40.662Z,929.63
2017-05-30T02:37:00.615Z,929.63
2017-05-30T02:37:20.032Z,929.59
2017-05-30T02:37:39.488Z,929.6
2017-05-30T02:37:58.858Z,929.65
2017-05-30T02:38:18.813Z,929.6
2017-05-30T02:38:38.239Z,929.59
2017-05-30T02:38:58.241Z,929.63
2017-05-30T02:39:18.238Z,929.63
2017-05-30T02:39:38.202Z,929.68
2017-05-30T02:39:56.985Z,929.66
2017-05-30T02:40:16.404Z,929.66
2017-05-30T02:40:35.223Z,929.67
2017-05-30T02:40:55.149Z,929.64
2017-05-30T02:41:15.448Z,929.68
2017-05-30T02:41:34.831Z,929.62
2017-05-30T02:41:54.794Z,929.69
2017-05-30T02:42:14.769Z,929.69
2017-05-30T02:42:34.192Z,929.67
2017-05-30T02:42:53.593Z,929.67
2017-05-30T02:43:13.541Z,929.64
2017-05-30T02:43:33.474Z,929.65
2017-05-30T02:43:53.422Z,929.65
2017-05-30T02:44:13.365Z,929.6
2017-05-30T02:44:32.778Z,929.62
2017-05-30T02:44:52.734Z,929.6
2017-05-30T02:45:12.689Z,929.6
2017-05-30T02:45:30.995Z,929.63
2017-05-30T02:45:50.976Z,929.57
2017-05-30T02:46:10.950Z,929.57
2017-05-30T02:46:29.354Z,929.61
2017-05-30T02:46:49.294Z,929.52
2017-05-30T02:47:09.256Z,929.54
2017-05-30T02:47:28.095Z,929.55
2017-05-30T02:47:48.091Z,929.55
2017-05-30T02:48:06.968Z,929.6
2017-05-30T02:48:26.402Z,929.56
2017-05-30T02:48:46.375Z,929.56
2017-05-30T02:49:06.399Z,929.57
2017-05-30T02:49:25.902Z,929.56
2017-05-30T02:49:45.297Z,929.59
2017-05-30T02:50:05.299Z,929.57
2017-05-30T02:50:24.691Z,929.58
2017-05-30T02:50:44.646Z,929.59
2017-05-30T02:51:03.495Z,929.59
2017-05-30T02:51:23.470Z,929.61
2017-05-30T02:51:43.397Z,929.64
2017-05-30T02:52:03.341Z,929.58
2017-05-30T02:52:22.186Z,929.59
2017-05-30T02:52:41.592Z,929.53
2017-05-30T02:53:01.003Z,929.6
2017-05-30T02:53:20.983Z,929.54
2017-05-30T02:53:40.938Z,929.57
2017-05-30T02:54:00.911Z,929.57
2017-05-30T02:54:20.335Z,929.54
2017-05-30T02:54:40.326Z,929.54
2017-05-30T02:55:00.282Z,929.55
2017-05-30T02:55:19.709Z,929.51
2017-05-30T02:55:39.743Z,929.5
2017-05-30T02:55:59.690Z,929.52
2017-05-30T02:56:19.623Z,929.45
2017-05-30T02:56:39.586Z,929.48
2017-05-30T02:56:58.437Z,929.51
2017-05-30T02:57:18.410Z,929.51
2017-05-30T02:57:38.374Z,929.47
2017-05-30T02:57:58.339Z,929.46
2017-05-30T02:58:18.307Z,929.47
2017-05-30T02:58:38.273Z,929.46
2017-05-30T02:58:58.231Z,929.47
2017-05-30T02:59:17.640Z,929.42
2017-05-30T02:59:37.657Z,929.45
2017-05-30T02:59:57.618Z,929.47
2017-05-30T03:00:17.054Z,929.48
2017-05-30T03:00:37.006Z,929.5
2017-05-30T03:00:56.940Z,929.48
2017-05-30T03:01:15.778Z,929.51
2017-05-30T03:01:35.717Z,929.46
2017-05-30T03:01:55.705Z,929.48
2017-05-30T03:02:14.556Z,929.52
2017-05-30T03:02:34.495Z,929.52
2017-05-30T03:02:53.334Z,929.51
2017-05-30T03:03:13.362Z,929.51
2017-05-30T03:03:33.383Z,929.52
2017-05-30T03:03:53.312Z,929.49
2017-05-30T03:04:12.723Z,929.48
2017-05-30T03:04:32.713Z,929.51
2017-05-30T03:04:52.690Z,929.48
2017-05-30T03:05:12.635Z,929.48
2017-05-30T03:05:32.056Z,929.5
2017-05-30T03:05:52.019Z,929.47
2017-05-30T03:06:12.002Z,929.47
2017-05-30T03:06:31.948Z,929.52
2017-05-30T03:06:51.916Z,929.45
2017-05-30T03:07:11.328Z,929.46
2017-05-30T03:07:30.715Z,929.43
2017-05-30T03:07:50.131Z,929.46
2017-05-30T03:08:10.100Z,929.45
2017-05-30T03:08:29.506Z,929.44
2017-05-30T03:08:49.439Z,929.43
2017-05-30T03:09:09.441Z,929.44
2017-05-30T03:09:28.290Z,929.4
2017-05-30T03:09:48.282Z,929.49
2017-05-30T03:10:07.683Z,929.43
2017-05-30T03:10:26.521Z,929.47
2017-05-30T03:10:45.916Z,929.44
2017-05-30T03:11:05.860Z,929.39
2017-05-30T03:11:25.803Z,929.43
2017-05-30T03:11:45.761Z,929.4
2017-05-30T03:12:05.679Z,929.39
2017-05-30T03:12:24.539Z,929.41
2017-05-30T03:12:43.935Z,929.39
2017-05-30T03:13:03.312Z,929.4
2017-05-30T03:13:22.166Z,929.41
2017-05-30T03:13:41.005Z,929.39
2017-05-30T03:14:00.950Z,929.35
2017-05-30T03:14:20.326Z,929.38
2017-05-30T03:14:39.749Z,929.43
2017-05-30T03:14:59.724Z,929.46
2017-05-30T03:15:19.111Z,929.43
2017-05-30T03:15:38.578Z,929.41
2017-05-30T03:15:58.522Z,929.45
2017-05-30T03:16:18.501Z,929.42
2017-05-30T03:16:37.923Z,929.42
2017-05-30T03:16:57.331Z,929.41
2017-05-30T03:17:16.722Z,929.46
2017-05-30T03:17:36.661Z,929.5
2017-05-30T03:17:56.590Z,929.5
2017-05-30T03:18:16.571Z,929.43
2017-05-30T03:18:36.583Z,929.44
2017-05-30T03:18:56.551Z,929.45
2017-05-30T03:19:16.000Z,929.45
2017-05-30T03:19:34.807Z,929.47
2017-05-30T03:19:54.788Z,929.44
2017-05-30T03:20:14.764Z,929.45
2017-05-30T03:20:34.748Z,929.48
2017-05-30T03:20:54.718Z,929.5
2017-05-30T03:21:14.116Z,929.48
2017-05-30T03:21:34.052Z,929.47
2017-05-30T03:21:53.482Z,929.52
2017-05-30T03:22:13.436Z,929.49
2017-05-30T03:22:33.424Z,929.49
2017-05-30T03:22:53.385Z,929.56
2017-05-30T03:23:13.367Z,929.53
2017-05-30T03:23:32.764Z,929.57
2017-05-30T03:23:52.717Z,929.54
2017-05-30T03:24:12.686Z,929.51
2017-05-30T03:24:31.535Z,929.55
2017-05-30T03:24:51.517Z,929.58
2017-05-30T03:25:11.483Z,929.62
2017-05-30T03:25:30.912Z,929.58
2017-05-30T03:25:50.886Z,929.64
2017-05-30T03:26:10.829Z,929.63
2017-05-30T03:26:31.236Z,929.59
2017-05-30T03:26:50.630Z,929.6
2017-05-30T03:27:10.541Z,929.62
2017-05-30T03:27:30.492Z,929.64
2017-05-30T03:27:49.938Z,929.66
2017-05-30T03:28:08.772Z,929.65
2017-05-30T03:28:28.713Z,929.67
2017-05-30T03:28:48.124Z,929.66
2017-05-30T03:29:08.060Z,929.66
2017-05-30T03:29:28.040Z,929.64
2017-05-30T03:29:47.997Z,929.68
2017-05-30T03:30:07.999Z,929.68
2017-05-30T03:30:27.378Z,929.65
2017-05-30T03:30:47.346Z,929.69
2017-05-30T03:31:07.309Z,929.68
2017-05-30T03:31:27.552Z,929.7
2017-05-30T03:31:47.576Z,929.66
2017-05-30T03:32:07.580Z,929.68
2017-05-30T03:32:27.003Z,929.64
2017-05-30T03:32:46.967Z,929.67
2017-05-30T03:33:06.944Z,929.65
2017-05-30T03:33:25.794Z,929.67
2017-05-30T03:33:45.769Z,929.69
2017-05-30T03:34:05.736Z,929.66
2017-05-30T03:34:25.114Z,929.72
2017-05-30T03:34:44.542Z,929.66
2017-05-30T03:35:04.509Z,929.68
2017-05-30T03:35:23.911Z,929.71
2017-05-30T03:35:43.863Z,929.64
2017-05-30T03:36:03.804Z,929.72
2017-05-30T03:36:23.752Z,929.65
2017-05-30T03:36:43.708Z,929.7
2017-05-30T03:37:03.662Z,929.72
2017-05-30T03:37:23.604Z,929.71
2017-05-30T03:37:43.552Z,929.71
2017-05-30T03:38:03.544Z,929.74
2017-05-30T03:38:22.954Z,929.73
2017-05-30T03:38:42.910Z,929.71
2017-05-30T03:39:02.928Z,929.71
2017-05-30T03:39:22.890Z,929.69
2017-05-30T03:39:42.898Z,929.71
2017-05-30T03:40:02.832Z,929.74
2017-05-30T03:40:22.255Z,929.71
2017-05-30T03:40:41.662Z,929.76
2017-05-30T03:41:01.669Z,929.72
2017-05-30T03:41:21.604Z,929.7
2017-05-30T03:41:40.958Z,929.71
2017-05-30T03:42:00.376Z,929.7
2017-05-30T03:42:19.791Z,929.69
2017-05-30T03:42:38.681Z,929.73
2017-05-30T03:42:58.090Z,929.74
2017-05-30T03:43:18.057Z,929.72
2017-05-30T03:43:38.029Z,929.75
2017-05-30T03:43:58.006Z,929.66
2017-05-30T03:44:17.423Z,929.69
2017-05-30T03:44:37.357Z,929.69
2017-05-30T03:44:56.245Z,929.68
2017-05-30T03:45:15.648Z,929.68
2017-05-30T03:45:35.035Z,929.64
2017-05-30T03:45:54.442Z,929.68
2017-05-30T03:46:13.290Z,929.63
2017-05-30T03:46:32.695Z,929.66
2017-05-30T03:46:52.693Z,929.63
2017-05-30T03:47:12.653Z,929.63
2017-05-30T03:47:32.098Z,929.63
2017-05-30T03:47:51.518Z,929.6
2017-05-30T03:48:11.493Z,929.65
2017-05-30T03:48:30.903Z,929.6
2017-05-30T03:48:50.843Z,929.61
2017-05-30T03:49:10.253Z,929.59
2017-05-30T03:49:29.675Z,929.6
2017-05-30T03:49:49.136Z,929.57
2017-05-30T03:50:08.570Z,929.62
2017-05-30T03:50:27.985Z,929.61
2017-05-30T03:50:47.962Z,929.59
2017-05-30T03:51:07.958Z,929.59
2017-05-30T03:51:26.785Z,929.57
2017-05-30T03:51:46.777Z,929.59
2017-05-30T03:52:06.172Z,929.57
2017-05-30T03:52:25.553Z,929.58
2017-05-30T03:52:44.935Z,929.57
2017-05-30T03:53:04.303Z,929.57
2017-05-30T03:53:23.674Z,929.57
2017-05-30T03:53:43.643Z,929.59
2017-05-30T03:54:03.619Z,929.6
2017-05-30T03:54:23.012Z,929.58
2017-05-30T03:54:42.980Z,929.57
2017-05-30T03:55:02.918Z,929.59
2017-05-30T03:55:22.881Z,929.57
2017-05-30T03:55:42.823Z,929.56
2017-05-30T03:56:02.251Z,929.62
2017-05-30T03:56:21.089Z,929.62
2017-05-30T03:56:41.133Z,929.62
2017-05-30T03:57:01.082Z,929.63
2017-05-30T03:57:21.039Z,929.61
2017-05-30T03:57:40.986Z,929.62
2017-05-30T03:58:00.385Z,929.63
2017-05-30T03:58:19.825Z,929.64
2017-05-30T03:58:38.691Z,929.6
2017-05-30T03:58:58.664Z,929.61
2017-05-30T03:59:18.613Z,929.62
2017-05-30T03:59:38.052Z,929.63
2017-05-30T03:59:58.057Z,929.61
2017-05-30T04:00:18.017Z,929.62
2017-05-30T04:00:37.434Z,929.62
2017-05-30T04:00:57.421Z,929.63
2017-05-30T04:01:16.840Z,929.65
2017-05-30T04:01:36.837Z,929.61
2017-05-30T04:01:56.807Z,929.62
2017-05-30T04:02:16.786Z,929.59
2017-05-30T04:02:36.194Z,929.59
2017-05-30T04:02:55.583Z,929.63
2017-05-30T04:03:14.980Z,929.61
2017-05-30T04:03:34.954Z,929.61
2017-05-30T04:03:54.915Z,929.64
2017-05-30T04:04:14.324Z,929.62
2017-05-30T04:04:34.291Z,929.61
2017-05-30T04:04:54.270Z,929.64
2017-05-30T04:05:14.214Z,929.62
2017-05-30T04:05:34.187Z,929.6
2017-05-30T04:05:53.599Z,929.67
2017-05-30T04:06:13.585Z,929.61
2017-05-30T04:06:33.239Z,929.6
2017-05-30T04:06:53.196Z,929.59
2017-05-30T04:07:13.163Z,929.58